Friday, February 12, 2016
22:35 UTC
  |  Log In   |  Register Free
Airport Search:

Faribault Municipal Airport
(KFBL)

Faribault Municipal Airport Diagram
No Airport Diagram Available

FAA data valid effective Feb 4 2016 - Mar 31 2016 (unless otherwise noted).

 
 
 
 
 
 
 
 
 
 
 
 
 
 
Current Aviation Weather for KFBL

Weather Summary


The most recent METAR observation for FBL was updated at: 12:54 UTC
METAR for KFBL is not available. Closest METAR is for KOWA
KFBL  (most recent observation was updatred at 12:22 UTC)
122201Z AUTO 30013G19KT 10SM CLR M13/M22 A3048 RMK AO2

KOWA  (12.5 nm NW)   (most recent observation was updated at 12:22 UTC)
122216Z AUTO 31018KT 10SM CLR M13/M22 A3046 RMK AO2

KSYN  (15.5 nm SW)   (most recent observation was updated at 12:22 UTC)
122215Z AUTO 33016G20KT 10SM CLR M12/M23 A3046 RMK AO2 T11201226

TAF for KFBL is not available.
KMSP  (33.5 nm SW)   (most recent observation was updatred at 12:20 UTC)
AMD 122048Z 1221/1324 32015G23KT P6SM SKC FM130100 31009KT P6SM SKC FM131300 VRB02KT P6SM FEW250 FM131800 16004KT P6SM SCT250


GlobalAir.com is loading additional information.
 Current Weather at FBL
10.0 F° (-12.0 C°)

Northwest winds at 13.8 mph
Pressure:
30.44 in
Humidity:
47%
Wind:
Northwest at 13.8 mph
Dew Point:
-5.8 F° (-21.0 C°)
Visibility:
10.00 mi
FBL NOAA Radar




Find All Airport Services Find A Hotel Find A Rental Car Find A Golf Course Find A Restaurant $100 Hamburger



Airport Weather Forecast for KFBL

Translated METAR for KFBL (2201 UTC)
METAR:
KFBL 122201Z AUTO 30013G19KT 10SM CLR M13/M22 A3048 RMK AO2
Conditions at:
KFBL (Faribault Muni, MN) observed 2201 UTC 12 February 2016
Temperature:
-13°C (8.6°F)
Dewpoint:
-22°C (-7.6°F) [RH = 46.9]
Pressure:
30.48 inches Hg (1032.2 mb)
Winds:
from the WNW (300 degrees) at 15 mph (13 knots: 6.7 m/s)
gusting to 21.9 mph (19 knots: 9.8 m/s)
Visibility:
10 mile(s)
Ceiling:
at least 12,000 feet AGL
Clouds:
Clear below 12,000 feet AGL
Remarks:
site is un-manned
site is automated and HAS a precipitation sensor

Translated TAF for KMSP (Minneapolis-St Paul Intl/Wold-Chamberlain, MN) (2048 UTC)
TAF text:
KMSP 122048Z 1221/1324 32015G23KT P6SM SKC
Forecast period:
Friday Feb 12 2016 21:00 UTC - Saturday Feb 13 2016 24:00 UTC
Forecast type:
FROM: standard forecast or significant change
Winds:
from the NW (320 degrees) at 17.3 mph (15 knots: 7.7 m/s)
gusting to 26.5 mph (23 knots: 11.8 m/s)
Visibility:
6 or more mile(s) (9.7+ km)
Ceiling:
at least 12,000 feet AGL
Clouds:
Clear Skies
Weather:
no significant weather observed at this time
TAF text:
FM130100 31009KT P6SM SKC
Forecast period:
Saturday Feb 13 2016 01:00 UTC - Saturday Feb 13 2016 13:00 UTC
Forecast type:
FROM: standard forecast or significant change
Winds:
from the NW (310 degrees) at 10.4 mph (9 knots: 4.6 m/s)
Visibility:
6 or more mile(s) (9.7+ km)
Ceiling:
at least 12,000 feet AGL
Clouds:
Clear Skies
Weather:
no significant weather observed at this time
TAF text:
FM131300 VRB02KT P6SM FEW250
Forecast period:
Saturday Feb 13 2016 13:00 UTC - Saturday Feb 13 2016 18:00 UTC
Forecast type:
FROM: standard forecast or significant change
Winds:
variable wind direction at 2.3 mph (2 knots: 1 m/s)
Visibility:
6 or more mile(s) (9.7+ km)
Ceiling:
at least 12,000 feet AGL
Clouds:
Few Clouds at 25,000 feet AGL
Weather:
no significant weather observed at this time
TAF text:
FM131800 16004KT P6SM SCT250
Forecast period:
Saturday Feb 13 2016 18:00 UTC - Saturday Feb 13 2016 24:00 UTC
Forecast type:
FROM: standard forecast or significant change
Winds:
from the SSE (160 degrees) at 4.6 mph (4 knots: 2.1 m/s)
Visibility:
6 or more mile(s) (9.7+ km)
Ceiling:
at least 12,000 feet AGL
Clouds:
Scattered Clouds at 25,000 feet AGL
Weather:
no significant weather observed at this time
FBO's on the Field
FBO Company Facility Photos Services Transportation Aviation Fuel Prices: Prices include tax
Catering Weather Repair Courtesy Rental Type 100LL JetA JetA+ MOGAS 8087
 
Quality Aviation

This FBO has not yet been rated
FS:Independent
Last Updated: Jan-11
Login to update fuel prices
SS:
Contact Quality AviationMore FBO Information
 
Add another FBO Facility Photos Catering Weather Repair Courtesy Rental Type 100LL JetA JetA+ MOGAS 8087
Services Transportation Aviation Fuel Prices: Prices include tax


model-print
model-print
model-print
model-print